Elkton, MD (21921)

7:06 AM EST on February 10, 2016 (GMT -0500)
White Hall ii | | Change Station
CLOSE
Current Station
Personal Weather Station
Location: Elkton, MD
Elevation: 30 ft
Nearby Weather Stations
Active Advisory: Special Statement Active Notice: Public Information Statement

Elev 30 ft 39.61 °N, 75.84 °W | Updated 6 minutes ago

Snow
Snow
28.9 °F
Feels Like 29 °F
N
2.0
Wind Variable Wind from NNW
Gusts 5.0 mph

Today
High -- | Low -- °F
--% Chance of Precip.
Yesterday
High -- | Low -- °F
Precip. -- in
Pressure 29.70 in
Visibility 3.0 miles
Clouds Overcast 2900 ft
Windchill 29 °F
Dew Point 24 °F
Humidity 83%
Rainfall 0.00 in
Snow Depth Not available.
7:02 AM 5:33 PM
Waxing Crescent, 5% visible
SPECI KILG 101202Z 28012KT 3SM -SN BR OVC029 M02/M03 A2970 RMK AO2 P0000 T10171033 $
Pressure 29.70 in
Visibility 3.0 miles
Clouds Overcast 2900 ft
Windchill 29 °F
Dew Point 24 °F
Humidity 83%
Rainfall 0.00 in
Snow Depth Not available.
7:02 AM 5:33 PM
Waxing Crescent, 5% visible
SPECI KILG 101202Z 28012KT 3SM -SN BR OVC029 M02/M03 A2970 RMK AO2 P0000 T10171033 $

10-Day Weather Forecast

Almanac

Astronomy

Feb. 10, 2016 Rise Set
Actual Time
Civil Twilight
Nautical Twilight
Astronomical Twilight
Moon
Length of Visible Light
Length of Day
Tomorrow will be .
, % of the Moon is Illuminated

Today's Extremes

State Highs State Lows

Community

WunderPhotos

Upload Photos

1,891,834 photos uploaded!

WunderBlog® & News

Nearby

Air Quality

  Air Quality AQ Index Pollutant
Not available.

Snow Depth

Station Depth Elevation

Earthquake Activity

City Distance Mag. Time & Date
Minimum magnitude displayed is 2.5.

Coastal Water Temperatures

Place Temperature

Stations

Nearby Weather Stations

Station Location Temp. Windchill Dew Point Humidity Wind Precip. Elev Updated Type
                   

Watches & Warnings

Special Statement
Issued: 3:33 AM EST Feb. 10, 2016 – National Weather Service

... Icy spots on roads and walkways possible through the morning
commute...

Temperatures are below freezing for most of the region. As a
result, icy spots and black ice have developed on untreated roads
and walkways. Black ice can be nearly impossible to see. Use
extra caution when driving and walking this morning, especially on
untreated roads and bridges and overpasses.

Melting is expected later this morning, but likely not until
after the morning commute.